createdAt,value
2023-04-16T00:00:22.573Z,14.17
2023-04-16T00:02:50.758Z,15.37
2023-04-16T00:05:19.146Z,14.60
2023-04-16T00:07:47.301Z,14.90
2023-04-16T00:10:16.015Z,14.77
2023-04-16T00:12:45.482Z,15.03
2023-04-16T00:15:13.508Z,15.53
2023-04-16T00:17:41.796Z,15.80
2023-04-16T00:20:11.560Z,15.30
2023-04-16T00:22:39.943Z,15.10
2023-04-16T00:25:08.653Z,15.30
2023-04-16T00:27:36.771Z,15.13
2023-04-16T00:30:07.546Z,15.73
2023-04-16T00:32:35.842Z,15.30
2023-04-16T00:35:04.075Z,15.30
2023-04-16T00:37:32.194Z,15.93
2023-04-16T00:40:00.557Z,15.40
2023-04-16T00:42:28.676Z,15.37
2023-04-16T00:44:56.752Z,15.63
2023-04-16T00:47:28.023Z,15.77
2023-04-16T00:49:56.175Z,15.27
2023-04-16T00:52:24.224Z,14.70
2023-04-16T00:54:52.306Z,15.20
2023-04-16T00:57:23.957Z,15.50
2023-04-16T00:59:52.482Z,15.40
2023-04-16T01:02:20.586Z,15.03
2023-04-16T01:04:50.070Z,15.13
2023-04-16T01:07:20.915Z,15.83
2023-04-16T01:09:48.964Z,15.10
2023-04-16T01:12:17.052Z,14.90
2023-04-16T01:14:45.176Z,15.50
2023-04-16T01:17:13.402Z,14.70
2023-04-16T01:19:41.506Z,15.20
2023-04-16T01:22:11.078Z,15.77
2023-04-16T01:24:39.620Z,15.77
2023-04-16T01:27:07.768Z,15.80
2023-04-16T01:29:36.175Z,15.57
2023-04-16T01:32:04.198Z,15.00
2023-04-16T01:34:32.228Z,14.40
2023-04-16T01:37:00.261Z,14.73
2023-04-16T01:39:29.681Z,14.23
2023-04-16T01:41:57.655Z,14.23
2023-04-16T01:44:25.740Z,14.90
2023-04-16T01:46:53.887Z,14.60
2023-04-16T01:49:22.083Z,14.33
2023-04-16T01:51:50.134Z,13.77
2023-04-16T01:54:18.238Z,13.77
2023-04-16T01:56:47.664Z,14.70
2023-04-16T01:59:15.775Z,14.13
2023-04-16T02:01:44.050Z,14.20
2023-04-16T02:04:13.816Z,14.70
2023-04-16T02:06:41.989Z,13.23
2023-04-16T02:09:10.220Z,13.50
2023-04-16T02:11:38.634Z,13.60
2023-04-16T02:14:08.686Z,13.27
2023-04-16T02:16:36.855Z,13.60
2023-04-16T02:19:04.966Z,13.50
2023-04-16T02:21:33.024Z,13.80
2023-04-16T02:24:01.102Z,13.53
2023-04-16T02:26:29.692Z,13.90
2023-04-16T02:28:57.748Z,14.27
2023-04-16T02:31:28.555Z,14.13
2023-04-16T02:33:56.660Z,13.80
2023-04-16T02:36:25.018Z,14.43
2023-04-16T02:38:53.072Z,14.20
2023-04-16T02:41:21.457Z,14.00
2023-04-16T02:43:49.534Z,14.70
2023-04-16T02:46:17.823Z,13.47
2023-04-16T02:48:47.360Z,14.50
2023-04-16T02:51:15.414Z,14.30
2023-04-16T02:53:45.920Z,14.03
2023-04-16T02:56:14.345Z,14.20
2023-04-16T02:58:42.471Z,14.30
2023-04-16T03:01:11.049Z,14.67
2023-04-16T03:03:39.161Z,13.80
2023-04-16T03:06:08.643Z,13.73
2023-04-16T03:08:36.712Z,13.90
2023-04-16T03:11:04.946Z,14.93
2023-04-16T03:13:33.001Z,13.83
2023-04-16T03:16:01.163Z,14.20
2023-04-16T03:18:29.353Z,14.13
2023-04-16T03:20:57.469Z,13.97
2023-04-16T03:23:28.171Z,14.70
2023-04-16T03:25:56.218Z,14.67
2023-04-16T03:28:24.369Z,14.17
2023-04-16T03:30:53.531Z,14.67
2023-04-16T03:33:22.804Z,14.93
2023-04-16T03:35:57.458Z,15.80
2023-04-16T03:38:27.289Z,15.37
2023-04-16T03:40:55.376Z,16.13
2023-04-16T03:43:23.502Z,15.30
2023-04-16T03:45:51.771Z,15.97
2023-04-16T03:48:19.839Z,15.00
2023-04-16T03:50:48.557Z,15.80
2023-04-16T03:53:16.613Z,16.10
2023-04-16T03:55:46.021Z,15.40
2023-04-16T03:58:14.052Z,15.10
2023-04-16T04:00:43.755Z,14.90
2023-04-16T04:03:12.058Z,14.80
2023-04-16T04:05:41.249Z,14.80
2023-04-16T04:08:09.643Z,15.20
2023-04-16T04:10:37.825Z,15.27
2023-04-16T04:13:08.394Z,15.40
2023-04-16T04:15:36.616Z,14.40
2023-04-16T04:18:04.780Z,15.20
2023-04-16T04:20:32.826Z,15.73
2023-04-16T04:23:00.911Z,15.73
2023-04-16T04:25:29.070Z,15.37
2023-04-16T04:27:57.157Z,14.70
2023-04-16T04:30:26.597Z,15.27
2023-04-16T04:32:54.771Z,15.13
2023-04-16T04:35:22.889Z,14.33
2023-04-16T04:37:50.987Z,14.30
2023-04-16T04:40:19.076Z,14.80
2023-04-16T04:42:47.182Z,14.60
2023-04-16T04:45:15.299Z,14.50
2023-04-16T04:47:44.901Z,15.13
2023-04-16T04:50:13.017Z,15.60
2023-04-16T04:52:41.056Z,14.37
2023-04-16T04:55:09.657Z,14.37
2023-04-16T04:57:37.758Z,15.40
2023-04-16T05:00:06.530Z,14.47
2023-04-16T05:02:34.773Z,15.73
2023-04-16T05:05:04.409Z,15.57
2023-04-16T05:07:32.661Z,15.23
2023-04-16T05:10:01.189Z,16.60
2023-04-16T05:12:29.297Z,16.73
2023-04-16T05:14:57.365Z,15.97
2023-04-16T05:17:25.458Z,16.40
2023-04-16T05:19:53.856Z,16.00
2023-04-16T05:22:23.331Z,16.63
2023-04-16T05:24:51.356Z,15.50
2023-04-16T05:27:19.476Z,16.03
2023-04-16T05:29:47.571Z,17.47
2023-04-16T05:32:16.174Z,18.23
2023-04-16T05:34:44.298Z,18.57
2023-04-16T05:37:12.540Z,19.00
2023-04-16T05:39:41.947Z,19.80
2023-04-16T05:42:10.050Z,20.10
2023-04-16T05:44:38.092Z,20.27
2023-04-16T05:47:07.329Z,19.87
2023-04-16T05:49:35.560Z,21.43
2023-04-16T05:52:07.480Z,20.37
2023-04-16T05:54:35.611Z,21.20
2023-04-16T05:57:05.355Z,20.00
2023-04-16T05:59:34.452Z,20.40
2023-04-16T06:02:02.566Z,21.40
2023-04-16T06:04:31.015Z,22.10
2023-04-16T06:06:59.056Z,21.53
2023-04-16T06:09:27.241Z,21.60
2023-04-16T06:11:55.490Z,21.70
2023-04-16T06:14:24.916Z,22.70
2023-04-16T06:16:52.950Z,21.90
2023-04-16T06:19:21.020Z,22.00
2023-04-16T06:21:49.074Z,22.37
2023-04-16T06:24:18.423Z,22.30
2023-04-16T06:26:46.645Z,22.33
2023-04-16T06:29:15.259Z,21.13
2023-04-16T06:31:44.804Z,23.07
2023-04-16T06:34:12.942Z,23.07
2023-04-16T06:36:41.184Z,23.00
2023-04-16T06:39:09.463Z,23.67
2023-04-16T06:41:37.872Z,22.80
2023-04-16T06:44:06.124Z,23.30
2023-04-16T06:46:34.237Z,24.53
2023-04-16T06:49:03.709Z,23.17
2023-04-16T06:51:31.858Z,24.73
2023-04-16T06:54:00.034Z,25.40
2023-04-16T06:56:28.094Z,24.23
2023-04-16T06:58:57.150Z,25.57
2023-04-16T07:01:25.351Z,26.17
2023-04-16T07:03:53.789Z,25.40
2023-04-16T07:06:23.431Z,25.90
2023-04-16T07:08:51.537Z,26.63
2023-04-16T07:11:20.921Z,24.67
2023-04-16T07:13:49.101Z,24.33
2023-04-16T07:16:17.259Z,25.43
2023-04-16T07:18:45.332Z,24.90
2023-04-16T07:21:13.428Z,25.02
2023-04-16T07:23:43.032Z,25.20
2023-04-16T07:26:11.679Z,24.87
2023-04-16T07:28:39.770Z,24.73
2023-04-16T07:31:07.963Z,23.13
2023-04-16T07:33:36.023Z,23.73
2023-04-16T07:36:04.165Z,25.27
2023-04-16T07:38:32.310Z,23.63
2023-04-16T07:41:01.940Z,24.50
2023-04-16T07:43:30.044Z,23.37
2023-04-16T07:45:58.100Z,23.60
2023-04-16T07:48:26.575Z,23.67
2023-04-16T07:50:54.676Z,26.33
2023-04-16T07:53:22.792Z,25.50
2023-04-16T07:55:50.911Z,23.13
2023-04-16T07:58:20.449Z,23.40
2023-04-16T08:00:49.792Z,23.90
2023-04-16T08:03:19.570Z,23.70
2023-04-16T08:05:47.850Z,24.13
2023-04-16T08:08:16.114Z,25.23
2023-04-16T08:10:44.235Z,24.10
2023-04-16T08:13:12.379Z,23.37
2023-04-16T08:15:41.954Z,23.03
2023-04-16T08:18:12.961Z,24.40
2023-04-16T08:20:41.163Z,23.77
2023-04-16T08:23:09.322Z,22.97
2023-04-16T08:25:37.393Z,24.13
2023-04-16T08:28:05.911Z,22.90
2023-04-16T08:30:34.365Z,22.87
2023-04-16T08:33:04.228Z,25.20
2023-04-16T08:35:32.484Z,23.60
2023-04-16T08:38:02.351Z,23.13
2023-04-16T08:40:32.385Z,24.33
2023-04-16T08:43:01.695Z,23.40
2023-04-16T08:45:30.297Z,22.47
2023-04-16T08:47:58.527Z,22.93
2023-04-16T08:50:28.658Z,23.17
2023-04-16T08:53:00.605Z,23.10
2023-04-16T08:55:36.995Z,22.70
2023-04-16T08:58:10.575Z,22.40
2023-04-16T09:00:40.999Z,22.53
2023-04-16T09:03:10.569Z,22.00
2023-04-16T09:05:40.911Z,21.90
2023-04-16T09:08:09.361Z,22.25
2023-04-16T09:10:37.562Z,24.58
2023-04-16T09:13:05.865Z,22.93
2023-04-16T09:15:36.593Z,23.20
2023-04-16T09:18:05.061Z,23.67
2023-04-16T09:20:33.220Z,22.80
2023-04-16T09:23:03.123Z,23.43
2023-04-16T09:25:34.992Z,23.57
2023-04-16T09:28:03.161Z,23.20
2023-04-16T09:30:31.275Z,23.57
2023-04-16T09:33:16.752Z,22.27
2023-04-16T09:35:49.399Z,23.37
2023-04-16T09:38:19.377Z,23.07
2023-04-16T09:40:48.538Z,22.40
2023-04-16T09:43:18.262Z,22.00
2023-04-16T09:45:51.005Z,22.70
2023-04-16T09:48:30.366Z,22.93
2023-04-16T09:50:58.745Z,23.23
2023-04-16T09:53:33.027Z,22.40
2023-04-16T09:56:02.733Z,23.97
2023-04-16T09:58:30.915Z,21.63
2023-04-16T10:01:02.801Z,23.73
2023-04-16T10:03:32.645Z,22.43
2023-04-16T10:06:02.848Z,23.40
2023-04-16T10:08:32.384Z,22.27
2023-04-16T10:11:01.058Z,23.60
2023-04-16T10:13:31.254Z,24.40
2023-04-16T10:15:59.593Z,24.30
2023-04-16T10:18:28.479Z,23.70
2023-04-16T10:20:56.763Z,23.93
2023-04-16T10:23:24.904Z,23.30
2023-04-16T10:25:57.594Z,23.00
2023-04-16T10:28:27.144Z,23.07
2023-04-16T10:30:57.817Z,22.70
2023-04-16T10:33:28.940Z,22.90
2023-04-16T10:36:09.786Z,22.13
2023-04-16T10:38:40.907Z,23.60
2023-04-16T10:41:10.986Z,23.27
2023-04-16T10:43:43.927Z,23.03
2023-04-16T10:46:23.258Z,22.80
2023-04-16T10:48:54.466Z,21.57
2023-04-16T10:51:31.455Z,23.40
2023-04-16T10:54:04.963Z,21.70
2023-04-16T10:56:36.049Z,22.90
2023-04-16T10:59:06.617Z,22.17
2023-04-16T11:01:36.170Z,22.67
2023-04-16T11:04:29.829Z,22.73
2023-04-16T11:07:08.818Z,21.90
2023-04-16T11:09:48.256Z,20.70
2023-04-16T11:12:18.867Z,21.53
2023-04-16T11:14:49.681Z,21.23
2023-04-16T11:17:18.633Z,20.50
2023-04-16T11:19:47.361Z,21.23
2023-04-16T11:22:18.177Z,20.53
2023-04-16T11:24:47.327Z,21.10
2023-04-16T11:27:17.151Z,21.20
2023-04-16T11:29:47.452Z,19.13
2023-04-16T11:32:22.940Z,20.30
2023-04-16T11:34:51.271Z,20.00
2023-04-16T11:37:22.590Z,19.10
2023-04-16T11:39:52.051Z,19.20
2023-04-16T11:42:24.775Z,19.43
2023-04-16T11:44:54.652Z,20.40
2023-04-16T11:47:23.912Z,19.40
2023-04-16T11:49:52.666Z,20.07
2023-04-16T11:52:28.484Z,20.20
2023-04-16T11:54:56.898Z,19.47
2023-04-16T11:57:31.441Z,19.63
2023-04-16T12:00:04.052Z,19.37
2023-04-16T12:02:38.060Z,19.90
2023-04-16T12:05:26.656Z,18.73
2023-04-16T12:07:54.821Z,18.13
2023-04-16T12:10:22.984Z,18.63
2023-04-16T12:12:52.520Z,18.70
2023-04-16T12:15:20.709Z,18.50
2023-04-16T12:17:50.604Z,18.50
2023-04-16T12:20:18.880Z,18.23
2023-04-16T12:22:49.703Z,16.83
2023-04-16T12:25:19.060Z,17.30
2023-04-16T12:27:51.486Z,16.93
2023-04-16T12:30:23.872Z,16.50
2023-04-16T12:32:55.555Z,16.77
2023-04-16T12:35:32.343Z,15.70
2023-04-16T12:38:01.005Z,15.10
2023-04-16T12:40:29.388Z,14.90
2023-04-16T12:42:57.574Z,15.20
2023-04-16T12:45:27.208Z,14.40
2023-04-16T12:47:55.919Z,15.70
2023-04-16T12:50:24.272Z,15.33
2023-04-16T12:52:52.470Z,15.40
2023-04-16T12:55:20.901Z,15.43
2023-04-16T12:57:49.903Z,15.60
2023-04-16T13:00:18.577Z,15.73
2023-04-16T13:02:48.687Z,15.53
2023-04-16T13:05:19.313Z,15.57
2023-04-16T13:07:47.858Z,15.23
2023-04-16T13:10:16.801Z,15.67
2023-04-16T13:12:46.706Z,16.03
2023-04-16T13:15:14.944Z,15.97
2023-04-16T13:17:43.152Z,15.30
2023-04-16T13:20:13.045Z,16.50
2023-04-16T13:22:41.365Z,15.13
2023-04-16T13:25:10.614Z,15.50
2023-04-16T13:27:38.692Z,16.10
2023-04-16T13:30:08.871Z,15.73
2023-04-16T13:32:37.181Z,16.37
2023-04-16T13:35:05.876Z,16.40
2023-04-16T13:37:36.200Z,15.83
2023-04-16T13:40:04.398Z,16.00
2023-04-16T13:42:32.563Z,15.33
2023-04-16T13:45:01.403Z,15.77
2023-04-16T13:47:30.184Z,16.20
2023-04-16T13:49:58.470Z,15.90
2023-04-16T13:52:26.610Z,16.20
2023-04-16T13:54:58.417Z,16.00
2023-04-16T13:57:29.020Z,17.23
2023-04-16T13:59:57.427Z,16.00
2023-04-16T14:02:26.671Z,15.80
2023-04-16T14:04:54.985Z,16.43
2023-04-16T14:07:26.237Z,15.70
2023-04-16T14:09:55.980Z,16.33
2023-04-16T14:12:24.131Z,17.27
2023-04-16T14:14:52.261Z,17.50
2023-04-16T14:17:20.428Z,17.30
2023-04-16T14:19:48.601Z,17.20
2023-04-16T14:22:17.851Z,16.77
2023-04-16T14:24:46.147Z,16.60
2023-04-16T14:27:17.012Z,17.33
2023-04-16T14:29:46.529Z,17.67
2023-04-16T14:32:14.682Z,18.00
2023-04-16T14:34:42.819Z,18.00
2023-04-16T14:37:10.975Z,18.20
2023-04-16T14:39:39.799Z,18.60
2023-04-16T14:42:08.191Z,18.77
2023-04-16T14:44:37.822Z,18.63
2023-04-16T14:47:06.140Z,18.60
2023-04-16T14:49:35.046Z,17.90
2023-04-16T14:52:05.569Z,17.70
2023-04-16T14:54:34.008Z,18.50
2023-04-16T14:57:02.496Z,17.90
2023-04-16T14:59:31.474Z,19.17
2023-04-16T15:02:01.189Z,19.37
2023-04-16T15:04:30.873Z,19.00
2023-04-16T15:06:59.266Z,19.73
2023-04-16T15:09:27.832Z,19.57
2023-04-16T15:11:56.988Z,18.87
2023-04-16T15:14:25.300Z,19.07
2023-04-16T15:16:54.186Z,19.67
2023-04-16T15:19:23.796Z,18.33
2023-04-16T15:21:51.967Z,19.90
2023-04-16T15:24:20.076Z,18.87
2023-04-16T15:26:48.258Z,21.90
2023-04-16T15:29:16.330Z,20.53
2023-04-16T15:31:44.448Z,19.93
2023-04-16T15:34:12.760Z,20.00
2023-04-16T15:36:43.223Z,19.50
2023-04-16T15:39:11.956Z,20.27
2023-04-16T15:41:57.070Z,19.33
2023-04-16T15:44:28.564Z,19.80
2023-04-16T15:46:56.789Z,20.33
2023-04-16T15:49:25.571Z,20.90
2023-04-16T15:51:55.260Z,20.53
2023-04-16T15:54:23.498Z,20.03
2023-04-16T15:56:52.355Z,20.30
2023-04-16T15:59:20.616Z,19.87
2023-04-16T16:01:49.082Z,19.90
2023-04-16T16:04:17.499Z,19.53
2023-04-16T16:06:45.876Z,19.30
2023-04-16T16:09:15.334Z,18.20
2023-04-16T16:11:43.464Z,19.60
2023-04-16T16:14:11.593Z,18.10
2023-04-16T16:16:40.285Z,17.93
2023-04-16T16:19:08.610Z,18.73
2023-04-16T16:21:37.047Z,18.20
2023-04-16T16:24:05.335Z,18.87
2023-04-16T16:26:35.109Z,19.73
2023-04-16T16:29:03.280Z,19.77
2023-04-16T16:31:31.836Z,19.47
2023-04-16T16:34:00.074Z,20.20
2023-04-16T16:36:29.689Z,21.00
2023-04-16T16:38:58.323Z,20.80
2023-04-16T16:41:26.561Z,21.53
2023-04-16T16:43:56.903Z,22.87
2023-04-16T16:46:25.339Z,22.77
2023-04-16T16:48:53.548Z,23.57
2023-04-16T16:51:21.841Z,23.87
2023-04-16T16:53:49.997Z,24.80
2023-04-16T16:56:18.379Z,24.70
2023-04-16T16:58:46.663Z,24.63
2023-04-16T17:01:16.262Z,24.17
2023-04-16T17:03:44.571Z,24.60
2023-04-16T17:06:12.862Z,23.77
2023-04-16T17:08:41.047Z,22.40
2023-04-16T17:11:09.252Z,23.90
2023-04-16T17:13:37.431Z,24.60
2023-04-16T17:16:05.828Z,24.33
2023-04-16T17:18:35.533Z,26.63
2023-04-16T17:21:03.673Z,24.80
2023-04-16T17:23:31.747Z,25.43
2023-04-16T17:26:00.484Z,25.20
2023-04-16T17:28:28.642Z,26.30
2023-04-16T17:30:57.245Z,26.73
2023-04-16T17:33:25.383Z,27.53
2023-04-16T17:35:54.909Z,25.83
2023-04-16T17:38:23.048Z,27.37
2023-04-16T17:40:51.109Z,26.93
2023-04-16T17:43:19.291Z,27.30
2023-04-16T17:45:47.642Z,27.50
2023-04-16T17:48:15.898Z,26.43
2023-04-16T17:50:44.062Z,28.93
2023-04-16T17:53:13.700Z,28.00
2023-04-16T17:55:42.752Z,27.10
2023-04-16T17:58:10.912Z,27.47
2023-04-16T18:00:38.993Z,27.73
2023-04-16T18:03:09.745Z,27.83
2023-04-16T18:05:37.975Z,28.63
2023-04-16T18:08:06.544Z,29.10
2023-04-16T18:10:36.197Z,29.37
2023-04-16T18:13:04.368Z,29.00
2023-04-16T18:15:32.526Z,28.57
2023-04-16T18:18:00.763Z,29.53
2023-04-16T18:20:28.950Z,29.20
2023-04-16T18:22:57.179Z,26.13
2023-04-16T18:25:33.685Z,27.00
2023-04-16T18:28:06.295Z,26.07
2023-04-16T18:30:35.506Z,26.10
2023-04-16T18:33:25.187Z,27.27
2023-04-16T18:35:51.953Z,27.80
2023-04-16T18:38:20.191Z,26.83
2023-04-16T18:40:49.769Z,26.60
2023-04-16T18:43:19.317Z,26.60
2023-04-16T18:45:47.454Z,27.60
2023-04-16T18:48:15.831Z,27.60
2023-04-16T18:50:44.029Z,25.73
2023-04-16T18:53:12.112Z,26.00
2023-04-16T18:55:40.379Z,26.93
2023-04-16T18:58:08.651Z,27.50
2023-04-16T19:00:38.296Z,27.03
2023-04-16T19:03:07.705Z,26.80
2023-04-16T19:05:36.439Z,25.70
2023-04-16T19:08:04.637Z,25.00
2023-04-16T19:10:32.862Z,26.03
2023-04-16T19:13:01.242Z,24.80
2023-04-16T19:15:31.629Z,24.73
2023-04-16T19:18:02.740Z,24.97
2023-04-16T19:20:30.921Z,26.40
2023-04-16T19:22:59.163Z,27.43
2023-04-16T19:25:27.263Z,26.33
2023-04-16T19:27:55.959Z,26.57
2023-04-16T19:30:24.206Z,26.30
2023-04-16T19:32:55.034Z,25.70
2023-04-16T19:35:25.050Z,25.30
2023-04-16T19:37:56.290Z,26.37
2023-04-16T19:40:24.469Z,27.30
2023-04-16T19:42:52.613Z,27.53
2023-04-16T19:45:25.691Z,28.40
2023-04-16T19:47:54.312Z,25.63
2023-04-16T19:50:24.271Z,25.60
2023-04-16T19:52:52.572Z,26.10
2023-04-16T19:55:20.960Z,24.87
2023-04-16T19:57:49.370Z,26.90
2023-04-16T20:00:18.188Z,25.20
2023-04-16T20:02:46.533Z,25.93
2023-04-16T20:05:15.327Z,25.60
2023-04-16T20:07:44.980Z,26.20
2023-04-16T20:10:13.231Z,25.17
2023-04-16T20:12:41.529Z,25.90
2023-04-16T20:15:10.725Z,25.87
2023-04-16T20:17:39.149Z,25.63
2023-04-16T20:20:10.252Z,25.07
2023-04-16T20:22:38.718Z,26.37
2023-04-16T20:25:10.103Z,24.10
2023-04-16T20:27:38.552Z,25.47
2023-04-16T20:30:07.980Z,26.47
2023-04-16T20:32:38.194Z,25.20
2023-04-16T20:35:10.848Z,24.90
2023-04-16T20:37:39.879Z,24.43
2023-04-16T20:40:11.148Z,24.90
2023-04-16T20:42:40.888Z,24.40
2023-04-16T20:45:12.585Z,24.63
2023-04-16T20:47:41.069Z,25.50
2023-04-16T20:50:11.165Z,23.70
2023-04-16T20:52:39.377Z,23.80
2023-04-16T20:55:10.141Z,25.50
2023-04-16T20:57:38.535Z,24.80
2023-04-16T21:00:12.485Z,25.80
2023-04-16T21:02:44.117Z,25.83
2023-04-16T21:05:15.000Z,25.97
2023-04-16T21:07:43.343Z,26.60
2023-04-16T21:10:22.702Z,25.90
2023-04-16T21:12:51.073Z,24.60
2023-04-16T21:15:28.595Z,25.47
2023-04-16T21:18:23.713Z,25.73
2023-04-16T21:20:52.257Z,28.95
2023-04-16T21:23:23.717Z,27.37
2023-04-16T21:26:01.317Z,27.23
2023-04-16T21:28:35.390Z,25.10
2023-04-16T21:31:08.669Z,26.30
2023-04-16T21:33:37.248Z,25.37
2023-04-16T21:36:09.455Z,26.63
2023-04-16T21:38:47.547Z,25.30
2023-04-16T21:41:38.359Z,25.73
2023-04-16T21:44:25.472Z,27.70
2023-04-16T21:46:56.114Z,24.90
2023-04-16T21:49:24.843Z,26.10
2023-04-16T21:51:59.446Z,22.97
2023-04-16T21:54:27.632Z,23.50
2023-04-16T21:56:59.479Z,23.10
2023-04-16T21:59:27.831Z,23.10
2023-04-16T22:01:56.431Z,21.90
2023-04-16T22:04:26.492Z,22.80
2023-04-16T22:06:56.646Z,22.57
2023-04-16T22:09:26.468Z,24.50
2023-04-16T22:11:59.826Z,24.17
2023-04-16T22:14:29.567Z,24.63
2023-04-16T22:16:58.693Z,24.30
2023-04-16T22:19:27.418Z,23.37
2023-04-16T22:21:56.260Z,26.27
2023-04-16T22:24:24.628Z,26.77
2023-04-16T22:26:52.757Z,25.43
2023-04-16T22:29:22.358Z,26.33
2023-04-16T22:31:50.513Z,25.00
2023-04-16T22:34:20.016Z,26.17
2023-04-16T22:36:51.729Z,25.73
2023-04-16T22:39:22.844Z,26.40
2023-04-16T22:41:51.630Z,25.80
2023-04-16T22:44:24.239Z,25.00
2023-04-16T22:46:55.470Z,26.20
2023-04-16T22:49:23.812Z,25.63
2023-04-16T22:51:52.010Z,24.83
2023-04-16T22:54:20.079Z,24.90
2023-04-16T22:56:48.619Z,25.00
2023-04-16T22:59:16.800Z,24.40
2023-04-16T23:01:46.307Z,26.10
2023-04-16T23:04:16.198Z,24.63
2023-04-16T23:06:44.451Z,24.70
2023-04-16T23:09:14.199Z,24.13
2023-04-16T23:11:42.566Z,24.40
2023-04-16T23:14:10.814Z,24.53
2023-04-16T23:16:38.929Z,24.13
2023-04-16T23:19:14.683Z,23.63
2023-04-16T23:21:42.952Z,24.57
2023-04-16T23:24:11.107Z,24.50
2023-04-16T23:26:39.192Z,24.60
2023-04-16T23:29:07.249Z,25.50
2023-04-16T23:31:35.483Z,24.93
2023-04-16T23:34:03.617Z,24.90
2023-04-16T23:36:33.096Z,24.33
2023-04-16T23:39:01.146Z,25.90
2023-04-16T23:41:29.259Z,25.30
2023-04-16T23:43:57.523Z,25.50
2023-04-16T23:46:26.268Z,24.07
2023-04-16T23:48:55.254Z,25.87
2023-04-16T23:51:23.448Z,25.10
2023-04-16T23:53:52.961Z,25.10
2023-04-16T23:56:21.220Z,26.77
2023-04-16T23:58:49.300Z,25.80
